createdAt,value
2019-02-15T00:01:48.617Z,10.07
2019-02-15T00:06:53.709Z,8.13
2019-02-15T00:11:58.934Z,9.70
2019-02-15T00:17:03.996Z,9.27
2019-02-15T00:22:08.974Z,9.73
2019-02-15T00:27:13.969Z,9.57
2019-02-15T00:32:18.501Z,8.47
2019-02-15T00:37:22.798Z,8.50
2019-02-15T00:42:27.483Z,8.60
2019-02-15T00:47:31.874Z,8.77
2019-02-15T00:52:36.063Z,9.00
2019-02-15T00:57:40.277Z,7.43
2019-02-15T01:02:44.459Z,10.77
2019-02-15T01:07:48.595Z,8.83
2019-02-15T01:12:52.851Z,10.57
2019-02-15T01:17:57.144Z,9.97
2019-02-15T01:23:01.427Z,9.53
2019-02-15T01:28:06.842Z,9.03
2019-02-15T01:33:11.474Z,10.87
2019-02-15T01:38:15.635Z,8.97
2019-02-15T01:43:19.994Z,9.33
2019-02-15T01:48:24.591Z,8.50
2019-02-15T01:53:28.915Z,7.70
2019-02-15T01:58:33.202Z,9.30
2019-02-15T02:03:37.882Z,6.73
2019-02-15T02:08:42.252Z,8.53
2019-02-15T02:13:49.674Z,8.37
2019-02-15T02:18:52.543Z,8.47
2019-02-15T02:23:56.762Z,6.97
2019-02-15T02:29:02.045Z,9.07
2019-02-15T02:34:06.307Z,7.27
2019-02-15T02:39:11.553Z,10.37
2019-02-15T02:44:15.799Z,7.93
2019-02-15T02:49:20.344Z,8.17
2019-02-15T02:54:24.703Z,8.37
2019-02-15T02:59:29.256Z,7.83
2019-02-15T03:04:33.863Z,8.83
2019-02-15T03:09:38.197Z,8.53
2019-02-15T03:14:42.354Z,7.80
2019-02-15T03:19:46.722Z,8.13
2019-02-15T03:24:51.000Z,7.33
2019-02-15T03:29:55.154Z,7.93
2019-02-15T03:34:59.325Z,8.47
2019-02-15T03:40:04.245Z,8.47
2019-02-15T03:45:09.546Z,8.03
2019-02-15T03:50:14.300Z,9.47
2019-02-15T03:55:18.801Z,8.40
2019-02-15T04:00:23.176Z,8.10
2019-02-15T04:05:27.475Z,9.83
2019-02-15T04:10:31.818Z,8.07
2019-02-15T04:15:36.609Z,7.70
2019-02-15T04:20:40.984Z,9.03
2019-02-15T04:25:45.441Z,7.10
2019-02-15T04:30:49.682Z,7.67
2019-02-15T04:35:53.878Z,8.07
2019-02-15T04:40:58.156Z,7.63
2019-02-15T04:46:02.486Z,8.20
2019-02-15T04:51:06.773Z,7.07
2019-02-15T04:56:10.943Z,9.07
2019-02-15T05:01:16.369Z,9.17
2019-02-15T05:06:20.658Z,8.43
2019-02-15T05:11:24.870Z,8.17
2019-02-15T05:16:29.326Z,7.27
2019-02-15T05:21:33.451Z,10.13
2019-02-15T05:26:37.769Z,8.50
2019-02-15T05:31:42.383Z,8.37
2019-02-15T05:36:46.588Z,8.27
2019-02-15T05:41:50.984Z,7.73
2019-02-15T05:46:55.268Z,8.40
2019-02-15T05:51:59.603Z,7.97
2019-02-15T05:57:04.667Z,7.17
2019-02-15T06:02:08.842Z,8.00
2019-02-15T06:07:13.130Z,7.97
2019-02-15T06:12:17.626Z,7.23
2019-02-15T06:17:21.932Z,7.30
2019-02-15T06:22:26.192Z,8.80
2019-02-15T06:27:30.452Z,7.53
2019-02-15T06:32:35.612Z,7.10
2019-02-15T06:37:39.933Z,8.27
2019-02-15T06:42:44.509Z,10.23
2019-02-15T06:47:48.767Z,8.10
2019-02-15T06:52:53.031Z,8.53
2019-02-15T06:57:57.239Z,8.73
2019-02-15T07:03:01.560Z,7.53
2019-02-15T07:08:05.754Z,7.53
2019-02-15T07:13:09.987Z,8.67
2019-02-15T07:18:15.393Z,7.90
2019-02-15T07:23:19.591Z,7.53
2019-02-15T07:28:23.755Z,8.00
2019-02-15T07:33:27.928Z,8.23
2019-02-15T07:38:32.183Z,7.83
2019-02-15T07:43:36.369Z,7.87
2019-02-15T07:48:40.583Z,8.77
2019-02-15T07:53:45.052Z,8.70
2019-02-15T07:58:49.271Z,8.70
2019-02-15T08:03:53.946Z,8.50
2019-02-15T08:08:58.150Z,8.77
2019-02-15T08:14:02.511Z,8.00
2019-02-15T08:19:06.866Z,7.63
2019-02-15T08:24:11.127Z,9.10
2019-02-15T08:29:15.401Z,8.10
2019-02-15T08:34:19.746Z,7.87
2019-02-15T08:39:25.455Z,8.10
2019-02-15T08:44:29.754Z,11.40
2019-02-15T08:49:34.645Z,8.87
2019-02-15T08:54:38.842Z,8.47
2019-02-15T08:59:43.095Z,7.77
2019-02-15T09:04:47.426Z,6.87
2019-02-15T09:09:51.614Z,8.03
2019-02-15T09:14:55.779Z,7.63
2019-02-15T09:19:59.940Z,9.07
2019-02-15T09:25:05.007Z,8.97
2019-02-15T09:30:11.115Z,8.47
2019-02-15T09:35:16.883Z,8.93
2019-02-15T09:40:21.368Z,7.73
2019-02-15T09:45:25.544Z,8.30
2019-02-15T09:50:29.713Z,8.17
2019-02-15T09:55:33.891Z,7.13
2019-02-15T10:00:38.264Z,8.03
2019-02-15T10:05:42.703Z,7.90
2019-02-15T10:10:47.254Z,7.83
2019-02-15T10:15:51.442Z,7.23
2019-02-15T10:20:55.618Z,7.50
2019-02-15T10:26:00.012Z,7.33
2019-02-15T10:31:04.539Z,8.00
2019-02-15T10:36:09.254Z,6.37
2019-02-15T10:41:15.022Z,7.20
2019-02-15T10:46:19.680Z,7.10
2019-02-15T10:51:24.358Z,7.30
2019-02-15T10:56:28.510Z,7.83
2019-02-15T11:01:32.679Z,7.03
2019-02-15T11:06:37.224Z,7.33
2019-02-15T11:11:41.450Z,7.67
2019-02-15T11:16:47.522Z,7.60
2019-02-15T11:21:52.012Z,9.23
2019-02-15T11:26:56.475Z,6.23
2019-02-15T11:32:00.666Z,7.03
2019-02-15T11:37:05.634Z,7.17
2019-02-15T11:42:11.434Z,6.30
2019-02-15T11:47:15.895Z,7.07
2019-02-15T11:52:20.143Z,6.60
2019-02-15T11:57:25.098Z,6.53
2019-02-15T12:02:29.289Z,6.40
2019-02-15T12:07:33.542Z,7.37
2019-02-15T12:12:37.871Z,6.57
2019-02-15T12:17:42.119Z,6.67
2019-02-15T12:22:46.314Z,6.13
2019-02-15T12:27:50.452Z,6.97
2019-02-15T12:32:54.984Z,7.07
2019-02-15T12:37:59.146Z,7.40
2019-02-15T12:43:03.440Z,6.37
2019-02-15T12:48:08.339Z,6.20
2019-02-15T12:53:12.610Z,6.63
2019-02-15T12:58:17.187Z,6.23
2019-02-15T13:03:21.807Z,6.73
2019-02-15T13:08:25.906Z,5.80
2019-02-15T13:13:31.708Z,6.30
2019-02-15T13:18:36.013Z,7.17
2019-02-15T13:23:40.547Z,6.70
2019-02-15T13:28:44.701Z,5.33
2019-02-15T13:33:49.041Z,7.23
2019-02-15T13:38:53.677Z,6.07
2019-02-15T13:43:58.316Z,6.33
2019-02-15T13:49:02.757Z,5.40
2019-02-15T13:54:07.074Z,5.50
2019-02-15T13:59:12.217Z,5.37
2019-02-15T14:04:16.776Z,5.80
2019-02-15T14:09:21.234Z,6.53
2019-02-15T14:14:25.372Z,6.67
2019-02-15T14:19:30.318Z,6.87
2019-02-15T14:24:35.150Z,5.97
2019-02-15T14:29:39.869Z,6.63
2019-02-15T14:34:44.176Z,5.60
2019-02-15T14:39:48.644Z,5.47
2019-02-15T14:44:52.859Z,5.87
2019-02-15T14:49:57.005Z,6.33
2019-02-15T14:55:01.265Z,5.60
2019-02-15T15:00:07.960Z,7.77
2019-02-15T15:05:13.662Z,6.77
2019-02-15T15:10:18.269Z,6.03
2019-02-15T15:15:22.532Z,6.03
2019-02-15T15:20:26.685Z,7.23
2019-02-15T15:25:30.890Z,5.90
2019-02-15T15:30:35.902Z,5.80
2019-02-15T15:35:40.186Z,6.27
2019-02-15T15:40:45.538Z,6.27
2019-02-15T15:45:49.708Z,6.10
2019-02-15T15:50:54.555Z,5.87
2019-02-15T15:55:58.698Z,5.97
2019-02-15T16:01:03.026Z,6.63
2019-02-15T16:06:07.463Z,6.93
2019-02-15T16:11:13.143Z,9.33
2019-02-15T16:16:17.405Z,6.93
2019-02-15T16:21:22.210Z,5.90
2019-02-15T16:26:26.554Z,7.23
2019-02-15T16:31:31.600Z,6.63
2019-02-15T16:36:35.939Z,9.70
2019-02-15T16:41:40.884Z,7.23
2019-02-15T16:46:46.607Z,7.73
2019-02-15T16:51:50.740Z,9.97
2019-02-15T16:56:55.506Z,8.77
2019-02-15T17:01:59.655Z,8.77
2019-02-15T17:07:03.907Z,8.90
2019-02-15T17:12:09.349Z,9.07
2019-02-15T17:17:15.205Z,9.20
2019-02-15T17:22:19.546Z,12.77
2019-02-15T17:27:24.203Z,8.90
2019-02-15T17:32:28.465Z,13.13
2019-02-15T17:37:32.739Z,10.17
2019-02-15T17:42:38.418Z,13.73
2019-02-15T17:47:42.667Z,9.63
2019-02-15T17:52:46.798Z,11.07
2019-02-15T17:57:51.102Z,16.13
2019-02-15T18:02:55.548Z,14.77
2019-02-15T18:07:59.693Z,13.90
2019-02-15T18:13:03.986Z,13.70
2019-02-15T18:18:08.912Z,18.47
2019-02-15T18:23:14.076Z,20.10
2019-02-15T18:28:18.490Z,19.23
2019-02-15T18:33:22.690Z,18.60
2019-02-15T18:38:27.034Z,23.03
2019-02-15T18:43:31.683Z,22.70
2019-02-15T18:48:35.834Z,21.03
2019-02-15T18:53:40.173Z,20.90
2019-02-15T18:58:44.738Z,21.17
2019-02-15T19:03:49.119Z,22.87
2019-02-15T19:08:53.600Z,25.60
2019-02-15T19:13:57.759Z,25.17
2019-02-15T19:19:04.540Z,24.53
2019-02-15T19:24:08.929Z,24.80
2019-02-15T19:29:13.590Z,24.40
2019-02-15T19:34:18.369Z,28.40
2019-02-15T19:39:24.139Z,26.43
2019-02-15T19:44:29.134Z,24.27
2019-02-15T19:49:38.773Z,26.33
2019-02-15T19:54:41.357Z,29.43
2019-02-15T19:59:53.547Z,31.63
2019-02-15T20:04:51.711Z,26.37
2019-02-15T20:09:56.014Z,27.77
2019-02-15T20:15:00.206Z,25.37
2019-02-15T20:20:05.363Z,27.80
2019-02-15T20:25:10.137Z,28.30
2019-02-15T20:30:15.880Z,28.67
2019-02-15T20:35:20.433Z,28.87
2019-02-15T20:40:25.064Z,27.57
2019-02-15T20:45:30.369Z,26.60
2019-02-15T20:50:34.793Z,30.90
2019-02-15T20:55:39.094Z,26.23
2019-02-15T21:00:43.567Z,30.93
2019-02-15T21:05:47.739Z,27.97
2019-02-15T21:10:55.007Z,30.10
2019-02-15T21:15:58.346Z,30.40
2019-02-15T21:21:02.502Z,29.43
2019-02-15T21:26:06.718Z,30.87
2019-02-15T21:31:10.971Z,32.60
2019-02-15T21:36:17.235Z,33.10
2019-02-15T21:41:21.682Z,35.00
2019-02-15T21:46:25.926Z,31.77
2019-02-15T21:51:30.386Z,34.77
2019-02-15T21:56:34.537Z,31.83
2019-02-15T22:01:38.657Z,34.10
2019-02-15T22:06:42.862Z,31.90
2019-02-15T22:11:47.209Z,35.73
2019-02-15T22:16:51.479Z,35.33
2019-02-15T22:21:55.866Z,34.63
2019-02-15T22:27:00.232Z,31.30
2019-02-15T22:32:05.299Z,36.47
2019-02-15T22:37:09.786Z,34.27
2019-02-15T22:42:15.486Z,33.77
2019-02-15T22:47:19.600Z,36.30
2019-02-15T22:52:23.837Z,35.33
2019-02-15T22:57:28.308Z,36.00
2019-02-15T23:02:32.526Z,40.57
2019-02-15T23:07:37.852Z,36.07
2019-02-15T23:12:42.037Z,39.23
2019-02-15T23:17:46.490Z,36.67
2019-02-15T23:22:50.706Z,38.10
2019-02-15T23:27:54.981Z,37.67
2019-02-15T23:32:59.725Z,35.87
2019-02-15T23:38:04.205Z,38.87
2019-02-15T23:43:10.001Z,40.07
2019-02-15T23:48:14.287Z,34.73
2019-02-15T23:53:18.663Z,38.90
2019-02-15T23:58:22.841Z,36.77
